Time;durP1;ratioP1;P1;durP2;ratioP2;P2;SDS_P1;SDS_P2;PMS_P1;PMS_P2;Temp;Humidity;BMP_temperature;BMP_pressure;BME280_temperature;BME280_humidity;BME280_pressure;Samples;Min_cycle;Max_cycle;Signal;HPM_P1;HPM_P2
2022/07/24 00:00:09;;;;;;;;;;;;;;;;;;5054282;28;19905;-42
2022/07/24 00:02:40;;;;;;;;;;;;;;;;;;5054241;28;20286;-41
2022/07/24 00:05:06;;;;;;;;;;;;;;;;;;5053902;28;19913;-41
2022/07/24 00:07:31;;;;;;;;;;;;;;;;;;5053865;28;19916;-42
2022/07/24 00:09:56;;;;;;;;;;;;;;;;;;5054072;28;19916;-42
2022/07/24 00:12:21;;;;;;;;;;;;;;;;;;5053813;28;19913;-41
2022/07/24 00:14:47;;;;;;;;;;;;;;;;;;5053705;28;20334;-42
2022/07/24 00:17:12;;;;;;;;;;;;;;;;;;5053419;28;19916;-42
2022/07/24 00:19:37;;;;;;;;;;;;;;;;;;5053639;28;19919;-42
2022/07/24 00:22:02;;;;;;;;;;;;;;;;;;5053702;28;19991;-43
2022/07/24 00:24:28;;;;;;;;;;;;;;;;;;5053531;28;20003;-42
2022/07/24 00:26:53;;;;;;;;;;;;;;;;;;5053474;28;19919;-42
2022/07/24 00:29:18;;;;;;;;;;;;;;;;;;5052398;28;19908;-42
2022/07/24 00:31:43;;;;;;;;;;;;;;;;;;5053392;28;19905;-41
2022/07/24 00:34:09;;;;;;;;;;;;;;;;;;5053233;28;19909;-42
2022/07/24 00:36:34;;;;;;;;;;;;;;;;;;5053720;28;19958;-42
2022/07/24 00:38:59;;;;;;;;;;;;;;;;;;5053507;28;19909;-42
2022/07/24 00:41:25;;;;;;;;;;;;;;;;;;5053230;28;19904;-42
2022/07/24 00:43:50;;;;;;;;;;;;;;;;;;5053505;28;19920;-41
2022/07/24 00:46:15;;;;;;;;;;;;;;;;;;5052988;28;20351;-41
2022/07/24 00:48:40;;;;;;;;;;;;;;;;;;5053406;28;20363;-43
2022/07/24 00:51:06;;;;;;;;;;;;;;;;;;5053360;28;19909;-42
2022/07/24 00:53:31;;;;;;;;;;;;;;;;;;5052960;28;19915;-41
2022/07/24 00:55:57;;;;;;;;;;;;;;;;;;5053080;28;19931;-41
2022/07/24 00:58:22;;;;;;;;;;;;;;;;;;5053082;28;19908;-42
2022/07/24 01:00:47;;;;;;;;;;;;;;;;;;5052878;28;19908;-43
2022/07/24 01:03:12;;;;;;;;;;;;;;;;;;5051971;28;19909;-42
2022/07/24 01:05:38;;;;;;;;;;;;;;;;;;5052607;28;19905;-41
2022/07/24 01:08:03;;;;;;;;;;;;;;;;;;5052751;28;19917;-41
2022/07/24 01:10:28;;;;;;;;;;;;;;;;;;5052949;28;19951;-43
2022/07/24 01:12:54;;;;;;;;;;;;;;;;;;5052667;28;20426;-42
2022/07/24 01:15:19;;;;;;;;;;;;;;;;;;5052487;28;19955;-43
2022/07/24 01:17:44;;;;;;;;;;;;;;;;;;5052585;28;19927;-41
2022/07/24 01:20:09;;;;;;;;;;;;;;;;;;5052457;28;19915;-41
2022/07/24 01:22:34;;;;;;;;;;;;;;;;;;5052829;28;19917;-42
2022/07/24 01:25:00;;;;;;;;;;;;;;;;;;5052667;28;19905;-42
2022/07/24 01:27:25;;;;;;;;;;;;;;;;;;5052197;28;20382;-41
2022/07/24 01:29:50;;;;;;;;;;;;;;;;;;5052405;28;19912;-41
2022/07/24 01:32:16;;;;;;;;;;;;;;;;;;5051040;28;20066;-43
2022/07/24 01:34:41;;;;;;;;;;;;;;;;;;5052507;28;19917;-42
2022/07/24 01:37:06;;;;;;;;;;;;;;;;;;5052207;28;20423;-41
2022/07/24 01:39:31;;;;;;;;;;;;;;;;;;5052150;28;19909;-42
2022/07/24 01:41:57;;;;;;;;;;;;;;;;;;5052447;28;19917;-42
2022/07/24 01:44:22;;;;;;;;;;;;;;;;;;5052243;28;19905;-41
2022/07/24 01:46:47;;;;;;;;;;;;;;;;;;5052096;28;19921;-41
2022/07/24 01:49:12;;;;;;;;;;;;;;;;;;5050647;28;19927;-43
2022/07/24 01:51:38;;;;;;;;;;;;;;;;;;5052369;28;19908;-43
2022/07/24 01:54:03;;;;;;;;;;;;;;;;;;5052010;28;19912;-42
2022/07/24 01:56:28;;;;;;;;;;;;;;;;;;5051774;28;19915;-42
2022/07/24 01:58:54;;;;;;;;;;;;;;;;;;5052007;28;19905;-42
2022/07/24 02:01:19;;;;;;;;;;;;;;;;;;5052111;28;19915;-42
2022/07/24 02:03:44;;;;;;;;;;;;;;;;;;5052082;28;19908;-41
2022/07/24 02:06:10;;;;;;;;;;;;;;;;;;5051714;28;20370;-43
2022/07/24 02:08:35;;;;;;;;;;;;;;;;;;5051741;28;19916;-41
2022/07/24 02:11:00;;;;;;;;;;;;;;;;;;5051720;28;19920;-42
2022/07/24 02:13:25;;;;;;;;;;;;;;;;;;5051411;28;19955;-42
2022/07/24 02:15:51;;;;;;;;;;;;;;;;;;5051595;28;19927;-42
2022/07/24 02:18:16;;;;;;;;;;;;;;;;;;5051847;28;19905;-42
2022/07/24 02:20:41;;;;;;;;;;;;;;;;;;5051936;28;20358;-42
2022/07/24 02:23:06;;;;;;;;;;;;;;;;;;5051974;28;19909;-41
2022/07/24 02:25:32;;;;;;;;;;;;;;;;;;5051689;28;19966;-42
2022/07/24 02:27:57;;;;;;;;;;;;;;;;;;5051857;28;19982;-43
2022/07/24 02:30:22;;;;;;;;;;;;;;;;;;5051743;28;20343;-41
2022/07/24 02:32:47;;;;;;;;;;;;;;;;;;5051583;28;19915;-41
2022/07/24 02:35:13;;;;;;;;;;;;;;;;;;5051621;28;20363;-41
2022/07/24 02:37:38;;;;;;;;;;;;;;;;;;5051614;28;19909;-41
2022/07/24 02:40:03;;;;;;;;;;;;;;;;;;5051429;28;20359;-41
2022/07/24 02:42:29;;;;;;;;;;;;;;;;;;5051654;28;19912;-41
2022/07/24 02:44:54;;;;;;;;;;;;;;;;;;5051372;28;19909;-43
2022/07/24 02:47:19;;;;;;;;;;;;;;;;;;5051432;28;19913;-42
2022/07/24 02:49:44;;;;;;;;;;;;;;;;;;5051500;28;19962;-42
2022/07/24 02:52:10;;;;;;;;;;;;;;;;;;5051224;28;19905;-41
2022/07/24 02:54:35;;;;;;;;;;;;;;;;;;5051629;28;19954;-41
2022/07/24 02:57:00;;;;;;;;;;;;;;;;;;5051392;28;19912;-42
2022/07/24 02:59:25;;;;;;;;;;;;;;;;;;5051216;28;19959;-41
2022/07/24 03:01:51;;;;;;;;;;;;;;;;;;5051573;28;19915;-42
2022/07/24 03:04:16;;;;;;;;;;;;;;;;;;5051141;28;19916;-40
2022/07/24 03:06:41;;;;;;;;;;;;;;;;;;5049846;28;19912;-43
2022/07/24 03:09:07;;;;;;;;;;;;;;;;;;5051537;28;19913;-41
2022/07/24 03:11:32;;;;;;;;;;;;;;;;;;5051385;28;20374;-42
2022/07/24 03:13:57;;;;;;;;;;;;;;;;;;5051107;28;19913;-42
2022/07/24 03:16:22;;;;;;;;;;;;;;;;;;5050880;28;20015;-41
2022/07/24 03:18:48;;;;;;;;;;;;;;;;;;5051351;28;20004;-42
2022/07/24 03:21:14;;;;;;;;;;;;;;;;;;5050996;28;20283;-43
2022/07/24 03:23:39;;;;;;;;;;;;;;;;;;5051352;28;19920;-41
2022/07/24 03:26:04;;;;;;;;;;;;;;;;;;5052381;28;20422;-42
2022/07/24 03:28:29;;;;;;;;;;;;;;;;;;5054538;28;19912;-42
2022/07/24 03:30:55;;;;;;;;;;;;;;;;;;5054614;28;19909;-40
2022/07/24 03:33:20;;;;;;;;;;;;;;;;;;5054443;28;20000;-41
2022/07/24 03:35:45;;;;;;;;;;;;;;;;;;5054470;28;19995;-42
2022/07/24 03:38:11;;;;;;;;;;;;;;;;;;5054463;28;19940;-41
2022/07/24 03:40:36;;;;;;;;;;;;;;;;;;5054557;28;19939;-41
2022/07/24 03:43:02;;;;;;;;;;;;;;;;;;5054337;28;19909;-42
2022/07/24 03:45:27;;;;;;;;;;;;;;;;;;5054227;28;20165;-42
2022/07/24 03:47:52;;;;;;;;;;;;;;;;;;5054400;28;19917;-41
2022/07/24 03:50:17;;;;;;;;;;;;;;;;;;5054179;28;20389;-43
2022/07/24 03:52:43;;;;;;;;;;;;;;;;;;5054556;28;19913;-42
2022/07/24 03:55:08;;;;;;;;;;;;;;;;;;5054412;28;19908;-42
2022/07/24 03:57:33;;;;;;;;;;;;;;;;;;5053959;28;19920;-42
2022/07/24 03:59:59;;;;;;;;;;;;;;;;;;5054104;28;19908;-43
2022/07/24 04:02:24;;;;;;;;;;;;;;;;;;5052685;28;19935;-42
2022/07/24 04:04:50;;;;;;;;;;;;;;;;;;5054229;28;19904;-42
2022/07/24 04:07:15;;;;;;;;;;;;;;;;;;5054172;28;20345;-41
2022/07/24 04:09:40;;;;;;;;;;;;;;;;;;5054156;28;20389;-41
2022/07/24 04:12:05;;;;;;;;;;;;;;;;;;5053829;28;19908;-42
2022/07/24 04:14:32;;;;;;;;;;;;;;;;;;5053990;28;20267;-42
2022/07/24 04:16:57;;;;;;;;;;;;;;;;;;5053606;28;19923;-42
2022/07/24 04:19:24;;;;;;;;;;;;;;;;;;5052641;28;19978;-41
2022/07/24 04:21:49;;;;;;;;;;;;;;;;;;5053689;28;19912;-42
2022/07/24 04:24:14;;;;;;;;;;;;;;;;;;5053521;28;19999;-41
2022/07/24 04:26:39;;;;;;;;;;;;;;;;;;5053480;28;19921;-41
2022/07/24 04:29:05;;;;;;;;;;;;;;;;;;5053383;28;19987;-43
2022/07/24 04:31:30;;;;;;;;;;;;;;;;;;5053508;28;20359;-41
2022/07/24 04:33:55;;;;;;;;;;;;;;;;;;5053678;28;19958;-42
2022/07/24 04:36:21;;;;;;;;;;;;;;;;;;5053290;28;19909;-41
2022/07/24 04:38:46;;;;;;;;;;;;;;;;;;5053481;28;19905;-42
2022/07/24 04:41:11;;;;;;;;;;;;;;;;;;5053239;28;20284;-41
2022/07/24 04:43:37;;;;;;;;;;;;;;;;;;5053537;28;19909;-42
2022/07/24 04:46:02;;;;;;;;;;;;;;;;;;5053429;28;20370;-44
2022/07/24 04:48:27;;;;;;;;;;;;;;;;;;5053119;28;19917;-42
2022/07/24 04:50:53;;;;;;;;;;;;;;;;;;5053470;28;19913;-42
2022/07/24 04:53:18;;;;;;;;;;;;;;;;;;5053151;28;20058;-41
2022/07/24 04:55:43;;;;;;;;;;;;;;;;;;5053039;28;19909;-42
2022/07/24 04:58:08;;;;;;;;;;;;;;;;;;5053297;28;19912;-42
2022/07/24 05:00:34;;;;;;;;;;;;;;;;;;5052811;28;20381;-42
2022/07/24 05:02:59;;;;;;;;;;;;;;;;;;5052924;28;19905;-41
2022/07/24 05:05:24;;;;;;;;;;;;;;;;;;5052774;28;19909;-41
2022/07/24 05:07:50;;;;;;;;;;;;;;;;;;5052676;28;20350;-42
2022/07/24 05:10:15;;;;;;;;;;;;;;;;;;5052636;28;19999;-46
2022/07/24 05:12:40;;;;;;;;;;;;;;;;;;5052719;28;19952;-42
2022/07/24 05:15:06;;;;;;;;;;;;;;;;;;5052613;28;20334;-42
2022/07/24 05:17:31;;;;;;;;;;;;;;;;;;5052452;28;19956;-42
2022/07/24 05:19:56;;;;;;;;;;;;;;;;;;5052487;28;19952;-42
2022/07/24 05:22:21;;;;;;;;;;;;;;;;;;5052674;28;19905;-41
2022/07/24 05:24:47;;;;;;;;;;;;;;;;;;5051227;28;19913;-42
2022/07/24 05:27:12;;;;;;;;;;;;;;;;;;5052328;28;20383;-41
2022/07/24 05:29:37;;;;;;;;;;;;;;;;;;5052451;28;20271;-41
2022/07/24 05:32:03;;;;;;;;;;;;;;;;;;5051159;28;19911;-42
2022/07/24 05:34:29;;;;;;;;;;;;;;;;;;5052354;28;19909;-41
2022/07/24 05:36:54;;;;;;;;;;;;;;;;;;5052520;28;20313;-41
2022/07/24 05:39:19;;;;;;;;;;;;;;;;;;5052283;28;19908;-41
2022/07/24 05:41:45;;;;;;;;;;;;;;;;;;5052259;28;19927;-42
2022/07/24 05:44:10;;;;;;;;;;;;;;;;;;5052024;28;19909;-41
2022/07/24 05:46:35;;;;;;;;;;;;;;;;;;5052309;28;19912;-41
2022/07/24 05:49:01;;;;;;;;;;;;;;;;;;5051969;28;19912;-42
2022/07/24 05:51:26;;;;;;;;;;;;;;;;;;5051892;28;19915;-42
2022/07/24 05:53:51;;;;;;;;;;;;;;;;;;5052042;28;19913;-42
2022/07/24 05:56:16;;;;;;;;;;;;;;;;;;5051854;28;19995;-42
2022/07/24 05:58:42;;;;;;;;;;;;;;;;;;5051885;28;19913;-42
2022/07/24 06:01:07;;;;;;;;;;;;;;;;;;5051919;28;19963;-42
2022/07/24 06:03:32;;;;;;;;;;;;;;;;;;5051673;28;19915;-42
2022/07/24 06:05:58;;;;;;;;;;;;;;;;;;5051986;28;19916;-41
2022/07/24 06:08:23;;;;;;;;;;;;;;;;;;5052037;28;20417;-42
2022/07/24 06:10:48;;;;;;;;;;;;;;;;;;5050526;28;19992;-42
2022/07/24 06:13:13;;;;;;;;;;;;;;;;;;5051926;28;19915;-41
2022/07/24 06:15:39;;;;;;;;;;;;;;;;;;5051548;28;19915;-42
2022/07/24 06:18:04;;;;;;;;;;;;;;;;;;5050489;28;19909;-43
2022/07/24 06:20:29;;;;;;;;;;;;;;;;;;5051537;28;19908;-42
2022/07/24 06:22:55;;;;;;;;;;;;;;;;;;5051583;28;19947;-42
2022/07/24 06:25:20;;;;;;;;;;;;;;;;;;5051869;28;19955;-42
2022/07/24 06:27:46;;;;;;;;;;;;;;;;;;5051454;28;20355;-42
2022/07/24 06:30:11;;;;;;;;;;;;;;;;;;5051657;28;19909;-42
2022/07/24 06:32:36;;;;;;;;;;;;;;;;;;5051525;28;19970;-42
2022/07/24 06:35:02;;;;;;;;;;;;;;;;;;5051740;28;19982;-42
2022/07/24 06:37:27;;;;;;;;;;;;;;;;;;5051516;28;19935;-42
2022/07/24 06:39:53;;;;;;;;;;;;;;;;;;5051768;28;20286;-42
2022/07/24 06:42:18;;;;;;;;;;;;;;;;;;5051372;28;20497;-41
2022/07/24 06:44:44;;;;;;;;;;;;;;;;;;5051808;28;19912;-43
2022/07/24 06:47:09;;;;;;;;;;;;;;;;;;5050316;28;19924;-42
2022/07/24 06:49:34;;;;;;;;;;;;;;;;;;5051328;28;19913;-41
2022/07/24 06:52:00;;;;;;;;;;;;;;;;;;5051728;28;19931;-41
2022/07/24 06:54:25;;;;;;;;;;;;;;;;;;5051495;28;19904;-43
2022/07/24 06:56:51;;;;;;;;;;;;;;;;;;5051388;28;19916;-42
2022/07/24 06:59:16;;;;;;;;;;;;;;;;;;5051278;28;19995;-41
2022/07/24 07:01:42;;;;;;;;;;;;;;;;;;5053747;28;20286;-41
2022/07/24 07:04:07;;;;;;;;;;;;;;;;;;5055118;28;19920;-41
2022/07/24 07:06:33;;;;;;;;;;;;;;;;;;5054919;28;19923;-40
2022/07/24 07:08:58;;;;;;;;;;;;;;;;;;5053764;28;19905;-41
2022/07/24 07:11:23;;;;;;;;;;;;;;;;;;5054949;28;19948;-41
2022/07/24 07:13:49;;;;;;;;;;;;;;;;;;5054956;28;20003;-42
2022/07/24 07:16:14;;;;;;;;;;;;;;;;;;5054643;28;20314;-42
2022/07/24 07:18:39;;;;;;;;;;;;;;;;;;5053552;28;20423;-41
2022/07/24 07:21:05;;;;;;;;;;;;;;;;;;5054852;28;19934;-41
2022/07/24 07:23:30;;;;;;;;;;;;;;;;;;5054921;28;19909;-43
2022/07/24 07:25:56;;;;;;;;;;;;;;;;;;5054946;28;20270;-41
2022/07/24 07:28:21;;;;;;;;;;;;;;;;;;5054620;28;19909;-41
2022/07/24 07:30:46;;;;;;;;;;;;;;;;;;5054608;28;19909;-42
2022/07/24 07:33:12;;;;;;;;;;;;;;;;;;5054900;28;20382;-42
2022/07/24 07:35:37;;;;;;;;;;;;;;;;;;5054598;28;19913;-41
2022/07/24 07:38:03;;;;;;;;;;;;;;;;;;5053315;28;19913;-42
2022/07/24 07:40:28;;;;;;;;;;;;;;;;;;5054467;28;19909;-41
2022/07/24 07:42:54;;;;;;;;;;;;;;;;;;5054476;28;19956;-41
2022/07/24 07:45:19;;;;;;;;;;;;;;;;;;5054541;28;20325;-42
2022/07/24 07:47:45;;;;;;;;;;;;;;;;;;5054584;28;19913;-42
2022/07/24 07:50:10;;;;;;;;;;;;;;;;;;5054602;28;20259;-42
2022/07/24 07:52:36;;;;;;;;;;;;;;;;;;5054136;28;19904;-42
2022/07/24 07:55:01;;;;;;;;;;;;;;;;;;5054517;28;19915;-41
2022/07/24 07:57:27;;;;;;;;;;;;;;;;;;5054144;28;20351;-42
2022/07/24 07:59:52;;;;;;;;;;;;;;;;;;5054023;28;19915;-42
2022/07/24 08:02:17;;;;;;;;;;;;;;;;;;5054278;28;19913;-42
2022/07/24 08:04:43;;;;;;;;;;;;;;;;;;5054015;28;19908;-41
2022/07/24 08:07:08;;;;;;;;;;;;;;;;;;5053899;28;19912;-43
2022/07/24 08:09:34;;;;;;;;;;;;;;;;;;5052566;28;19919;-42
2022/07/24 08:11:59;;;;;;;;;;;;;;;;;;5053775;28;19920;-42
2022/07/24 08:14:25;;;;;;;;;;;;;;;;;;5053681;28;20286;-41
2022/07/24 08:16:50;;;;;;;;;;;;;;;;;;5053636;28;19927;-42
2022/07/24 08:19:15;;;;;;;;;;;;;;;;;;5053947;28;19920;-42
2022/07/24 08:21:41;;;;;;;;;;;;;;;;;;5053619;28;19943;-42
2022/07/24 08:24:07;;;;;;;;;;;;;;;;;;5053609;28;19920;-41
2022/07/24 08:26:32;;;;;;;;;;;;;;;;;;5053472;28;19922;-42
2022/07/24 08:28:58;;;;;;;;;;;;;;;;;;5053865;28;20370;-41
2022/07/24 08:31:23;;;;;;;;;;;;;;;;;;5053749;28;19915;-42
2022/07/24 08:33:49;;;;;;;;;;;;;;;;;;5053342;28;19913;-41
2022/07/24 08:36:14;;;;;;;;;;;;;;;;;;5053303;28;19954;-43
2022/07/24 08:38:40;;;;;;;;;;;;;;;;;;5053759;28;19913;-42
2022/07/24 08:41:06;;;;;;;;;;;;;;;;;;5053583;28;20366;-41
2022/07/24 08:43:31;;;;;;;;;;;;;;;;;;5053413;28;20446;-42
2022/07/24 08:45:56;;;;;;;;;;;;;;;;;;5053241;28;20287;-43
2022/07/24 08:48:22;;;;;;;;;;;;;;;;;;5053040;28;19913;-42
2022/07/24 08:50:47;;;;;;;;;;;;;;;;;;5053206;28;19928;-42
2022/07/24 08:53:13;;;;;;;;;;;;;;;;;;5051778;28;19909;-40
2022/07/24 08:55:41;;;;;;;;;;;;;;;;;;5053047;28;20061;-42
2022/07/24 08:58:07;;;;;;;;;;;;;;;;;;5053322;28;20415;-42
2022/07/24 09:00:32;;;;;;;;;;;;;;;;;;5052886;28;20420;-42
2022/07/24 09:02:57;;;;;;;;;;;;;;;;;;5053429;28;19913;-41
2022/07/24 09:05:23;;;;;;;;;;;;;;;;;;5052777;28;19905;-42
2022/07/24 09:07:48;;;;;;;;;;;;;;;;;;5053058;28;19921;-43
2022/07/24 09:10:15;;;;;;;;;;;;;;;;;;5052728;28;19911;-41
2022/07/24 09:12:41;;;;;;;;;;;;;;;;;;5052668;28;19913;-42
2022/07/24 09:15:06;;;;;;;;;;;;;;;;;;5051535;28;20358;-41
2022/07/24 09:17:32;;;;;;;;;;;;;;;;;;5052417;28;20007;-41
2022/07/24 09:19:58;;;;;;;;;;;;;;;;;;5052635;28;19912;-42
2022/07/24 09:22:24;;;;;;;;;;;;;;;;;;5052589;28;19919;-42
2022/07/24 09:24:50;;;;;;;;;;;;;;;;;;5051770;28;19916;-41
2022/07/24 09:27:16;;;;;;;;;;;;;;;;;;5052581;28;20286;-42
2022/07/24 09:29:41;;;;;;;;;;;;;;;;;;5052808;28;19905;-41
2022/07/24 09:32:07;;;;;;;;;;;;;;;;;;5052387;28;20544;-42
2022/07/24 09:34:32;;;;;;;;;;;;;;;;;;5052252;28;20274;-41
2022/07/24 09:36:57;;;;;;;;;;;;;;;;;;5052594;28;19916;-42
2022/07/24 09:39:23;;;;;;;;;;;;;;;;;;5052128;28;19908;-41
2022/07/24 09:41:48;;;;;;;;;;;;;;;;;;5052247;28;19995;-44
2022/07/24 09:44:14;;;;;;;;;;;;;;;;;;5052143;28;20440;-42
2022/07/24 09:46:39;;;;;;;;;;;;;;;;;;5051896;28;20058;-42
2022/07/24 09:49:06;;;;;;;;;;;;;;;;;;5052187;28;19911;-42
2022/07/24 09:51:31;;;;;;;;;;;;;;;;;;5052078;28;20495;-43
2022/07/24 09:53:56;;;;;;;;;;;;;;;;;;5052066;28;19950;-42
2022/07/24 09:56:22;;;;;;;;;;;;;;;;;;5051921;28;19913;-42
2022/07/24 09:58:47;;;;;;;;;;;;;;;;;;5051973;28;19915;-42
2022/07/24 10:01:13;;;;;;;;;;;;;;;;;;5051846;28;19909;-41
2022/07/24 10:03:38;;;;;;;;;;;;;;;;;;5051969;28;19915;-42
2022/07/24 10:06:04;;;;;;;;;;;;;;;;;;5052036;28;19924;-42
2022/07/24 10:08:29;;;;;;;;;;;;;;;;;;5051621;28;19971;-41
2022/07/24 10:10:55;;;;;;;;;;;;;;;;;;5051776;28;19916;-42
2022/07/24 10:13:20;;;;;;;;;;;;;;;;;;5050409;28;20007;-41
2022/07/24 10:15:45;;;;;;;;;;;;;;;;;;5051558;28;19913;-42
2022/07/24 10:18:11;;;;;;;;;;;;;;;;;;5051726;28;19952;-42
2022/07/24 10:20:36;;;;;;;;;;;;;;;;;;5051606;28;19909;-42
2022/07/24 10:23:02;;;;;;;;;;;;;;;;;;5051931;28;19905;-42
2022/07/24 10:25:27;;;;;;;;;;;;;;;;;;5051672;28;19959;-41
2022/07/24 10:27:52;;;;;;;;;;;;;;;;;;5051505;28;19919;-41
2022/07/24 10:30:18;;;;;;;;;;;;;;;;;;5051805;28;19920;-41
2022/07/24 10:32:43;;;;;;;;;;;;;;;;;;5051396;28;19909;-42
2022/07/24 10:35:09;;;;;;;;;;;;;;;;;;5052907;28;19916;-41
2022/07/24 10:37:34;;;;;;;;;;;;;;;;;;5055620;28;19904;-40
2022/07/24 10:40:00;;;;;;;;;;;;;;;;;;5055914;28;19913;-42
2022/07/24 10:42:26;;;;;;;;;;;;;;;;;;5055433;28;19963;-41
2022/07/24 10:44:51;;;;;;;;;;;;;;;;;;5055545;28;20386;-42
2022/07/24 10:47:19;;;;;;;;;;;;;;;;;;5055571;28;19913;-44
2022/07/24 10:49:45;;;;;;;;;;;;;;;;;;5055488;28;20380;-42
2022/07/24 10:52:11;;;;;;;;;;;;;;;;;;5055438;28;19909;-42
2022/07/24 10:54:36;;;;;;;;;;;;;;;;;;5055352;28;20366;-42
2022/07/24 10:57:02;;;;;;;;;;;;;;;;;;5055188;28;19970;-42
2022/07/24 10:59:29;;;;;;;;;;;;;;;;;;5055140;28;19908;-43
2022/07/24 11:01:55;;;;;;;;;;;;;;;;;;5055262;28;19912;-41
2022/07/24 11:04:22;;;;;;;;;;;;;;;;;;5054993;28;19908;-42
2022/07/24 11:06:48;;;;;;;;;;;;;;;;;;5055119;28;19913;-42
2022/07/24 11:09:13;;;;;;;;;;;;;;;;;;5055215;28;19912;-41
2022/07/24 11:11:38;;;;;;;;;;;;;;;;;;5054931;28;19916;-41
2022/07/24 11:14:04;;;;;;;;;;;;;;;;;;5053730;28;19916;-42
2022/07/24 11:16:29;;;;;;;;;;;;;;;;;;5054747;28;19959;-42
2022/07/24 11:18:55;;;;;;;;;;;;;;;;;;5054853;28;19916;-43
2022/07/24 11:21:20;;;;;;;;;;;;;;;;;;5055033;28;19911;-43
2022/07/24 11:23:46;;;;;;;;;;;;;;;;;;5054824;28;19960;-42
2022/07/24 11:26:11;;;;;;;;;;;;;;;;;;5054901;28;19916;-41
2022/07/24 11:28:39;;;;;;;;;;;;;;;;;;5054733;28;20397;-42
2022/07/24 11:31:05;;;;;;;;;;;;;;;;;;5054676;28;19918;-42
2022/07/24 11:33:30;;;;;;;;;;;;;;;;;;5054470;28;19915;-42
2022/07/24 11:35:55;;;;;;;;;;;;;;;;;;5054950;28;19971;-43
2022/07/24 11:38:21;;;;;;;;;;;;;;;;;;5054551;28;19909;-41
2022/07/24 11:40:46;;;;;;;;;;;;;;;;;;5054859;28;19909;-42
2022/07/24 11:43:12;;;;;;;;;;;;;;;;;;5054410;28;19908;-42
2022/07/24 11:45:38;;;;;;;;;;;;;;;;;;5054493;28;19908;-41
2022/07/24 11:48:03;;;;;;;;;;;;;;;;;;5053499;28;19999;-41
2022/07/24 11:50:29;;;;;;;;;;;;;;;;;;5054215;28;19960;-41
2022/07/24 11:52:55;;;;;;;;;;;;;;;;;;5054595;28;19909;-42
2022/07/24 11:55:20;;;;;;;;;;;;;;;;;;5054125;28;20351;-40
2022/07/24 11:57:46;;;;;;;;;;;;;;;;;;5054268;28;19909;-41
2022/07/24 12:00:12;;;;;;;;;;;;;;;;;;5054137;28;19999;-41
2022/07/24 12:02:37;;;;;;;;;;;;;;;;;;5054252;28;19920;-41
2022/07/24 12:05:03;;;;;;;;;;;;;;;;;;5054143;28;19996;-43
2022/07/24 12:07:29;;;;;;;;;;;;;;;;;;5053818;28;19924;-46
2022/07/24 12:09:54;;;;;;;;;;;;;;;;;;5054060;28;19905;-41
2022/07/24 12:12:20;;;;;;;;;;;;;;;;;;5053932;28;20370;-42
2022/07/24 12:14:45;;;;;;;;;;;;;;;;;;5052568;28;19912;-42
2022/07/24 12:17:11;;;;;;;;;;;;;;;;;;5053701;28;19916;-42
2022/07/24 12:19:36;;;;;;;;;;;;;;;;;;5053744;28;20111;-42
2022/07/24 12:22:01;;;;;;;;;;;;;;;;;;5054025;28;19958;-42
2022/07/24 12:24:27;;;;;;;;;;;;;;;;;;5053599;28;20001;-41
2022/07/24 12:26:52;;;;;;;;;;;;;;;;;;5053709;28;19924;-42
2022/07/24 12:29:18;;;;;;;;;;;;;;;;;;5052246;28;19909;-42
2022/07/24 12:31:43;;;;;;;;;;;;;;;;;;5053588;28;19916;-42
2022/07/24 12:34:09;;;;;;;;;;;;;;;;;;5053406;28;19908;-42
2022/07/24 12:36:35;;;;;;;;;;;;;;;;;;5053445;28;20045;-43
2022/07/24 12:39:00;;;;;;;;;;;;;;;;;;5053380;28;20359;-41
2022/07/24 12:41:26;;;;;;;;;;;;;;;;;;5052049;28;20034;-41
2022/07/24 12:43:51;;;;;;;;;;;;;;;;;;5053284;28;19909;-42
2022/07/24 12:46:17;;;;;;;;;;;;;;;;;;5053470;28;19924;-41
2022/07/24 12:48:42;;;;;;;;;;;;;;;;;;5053131;28;20038;-41
2022/07/24 12:51:09;;;;;;;;;;;;;;;;;;5053121;28;19979;-41
2022/07/24 12:53:34;;;;;;;;;;;;;;;;;;5053015;28;19911;-41
2022/07/24 12:56:00;;;;;;;;;;;;;;;;;;5053163;28;19909;-43
2022/07/24 12:58:25;;;;;;;;;;;;;;;;;;5051891;28;19927;-41
2022/07/24 13:00:50;;;;;;;;;;;;;;;;;;5053049;28;19995;-42
2022/07/24 13:03:16;;;;;;;;;;;;;;;;;;5053255;28;19912;-41
2022/07/24 13:05:41;;;;;;;;;;;;;;;;;;5052823;28;20363;-42
2022/07/24 13:08:07;;;;;;;;;;;;;;;;;;5051648;28;20430;-41
2022/07/24 13:10:32;;;;;;;;;;;;;;;;;;5052811;28;19982;-42
2022/07/24 13:12:58;;;;;;;;;;;;;;;;;;5052752;28;19913;-42
2022/07/24 13:15:23;;;;;;;;;;;;;;;;;;5052446;28;19912;-42
2022/07/24 13:17:49;;;;;;;;;;;;;;;;;;5052651;28;19917;-42
2022/07/24 13:20:15;;;;;;;;;;;;;;;;;;5052930;28;19912;-42
2022/07/24 13:22:40;;;;;;;;;;;;;;;;;;5052420;28;19913;-41
2022/07/24 13:25:06;;;;;;;;;;;;;;;;;;5052566;28;19920;-43
2022/07/24 13:27:31;;;;;;;;;;;;;;;;;;5052253;28;19924;-42
2022/07/24 13:29:56;;;;;;;;;;;;;;;;;;5052444;28;20256;-43
2022/07/24 13:32:22;;;;;;;;;;;;;;;;;;5052496;28;19963;-42
2022/07/24 13:34:48;;;;;;;;;;;;;;;;;;5052329;28;19919;-41
2022/07/24 13:37:13;;;;;;;;;;;;;;;;;;5052548;28;19947;-41
2022/07/24 13:39:40;;;;;;;;;;;;;;;;;;5052245;28;19916;-43
2022/07/24 13:42:05;;;;;;;;;;;;;;;;;;5052462;28;19963;-41
2022/07/24 13:44:31;;;;;;;;;;;;;;;;;;5052121;28;20302;-41
2022/07/24 13:46:56;;;;;;;;;;;;;;;;;;5052394;28;19913;-42
2022/07/24 13:49:21;;;;;;;;;;;;;;;;;;5052013;28;19909;-41
2022/07/24 13:51:47;;;;;;;;;;;;;;;;;;5052177;28;19909;-42
2022/07/24 13:54:15;;;;;;;;;;;;;;;;;;5052034;28;19952;-42
2022/07/24 13:56:41;;;;;;;;;;;;;;;;;;5051884;28;19952;-43
2022/07/24 13:59:06;;;;;;;;;;;;;;;;;;5052023;28;19913;-43
2022/07/24 14:01:31;;;;;;;;;;;;;;;;;;5051789;28;19912;-41
2022/07/24 14:03:57;;;;;;;;;;;;;;;;;;5051932;28;19909;-42
2022/07/24 14:06:22;;;;;;;;;;;;;;;;;;5051825;28;19915;-42
2022/07/24 14:08:48;;;;;;;;;;;;;;;;;;5051848;28;20279;-42
2022/07/24 14:11:13;;;;;;;;;;;;;;;;;;5051839;28;19951;-42
2022/07/24 14:13:39;;;;;;;;;;;;;;;;;;5050456;28;19912;-42
2022/07/24 14:16:04;;;;;;;;;;;;;;;;;;5050313;28;19959;-46
2022/07/24 14:18:29;;;;;;;;;;;;;;;;;;5051723;28;19908;-42
2022/07/24 14:20:58;;;;;;;;;;;;;;;;;;5051710;28;20270;-41
2022/07/24 14:23:23;;;;;;;;;;;;;;;;;;5051585;28;19915;-41
2022/07/24 14:25:49;;;;;;;;;;;;;;;;;;5051644;28;20373;-42
2022/07/24 14:28:14;;;;;;;;;;;;;;;;;;5051884;28;19917;-43
2022/07/24 14:30:40;;;;;;;;;;;;;;;;;;5051507;28;20363;-42
2022/07/24 14:33:05;;;;;;;;;;;;;;;;;;5051787;28;19971;-42
2022/07/24 14:35:31;;;;;;;;;;;;;;;;;;5051507;28;19926;-41
2022/07/24 14:37:56;;;;;;;;;;;;;;;;;;5051519;28;20007;-43
2022/07/24 14:40:22;;;;;;;;;;;;;;;;;;5051452;28;19908;-41
2022/07/24 14:42:47;;;;;;;;;;;;;;;;;;5051551;28;20267;-41
2022/07/24 14:45:13;;;;;;;;;;;;;;;;;;5051395;28;19904;-42
2022/07/24 14:47:39;;;;;;;;;;;;;;;;;;5050034;28;20413;-42
2022/07/24 14:50:04;;;;;;;;;;;;;;;;;;5050301;28;19905;-42
2022/07/24 14:52:30;;;;;;;;;;;;;;;;;;5051300;28;19908;-41
2022/07/24 14:54:55;;;;;;;;;;;;;;;;;;5051460;28;19912;-41
2022/07/24 14:57:20;;;;;;;;;;;;;;;;;;5051540;28;20042;-41
2022/07/24 14:59:46;;;;;;;;;;;;;;;;;;5051283;28;19909;-43
2022/07/24 15:02:11;;;;;;;;;;;;;;;;;;5051652;28;19952;-42
2022/07/24 15:04:36;;;;;;;;;;;;;;;;;;5051269;28;20347;-42
2022/07/24 15:07:02;;;;;;;;;;;;;;;;;;5051511;28;19920;-42
2022/07/24 15:09:27;;;;;;;;;;;;;;;;;;5051238;28;19904;-41
2022/07/24 15:11:53;;;;;;;;;;;;;;;;;;5051230;28;20388;-42
2022/07/24 15:14:18;;;;;;;;;;;;;;;;;;5051113;28;19912;-42
2022/07/24 15:16:43;;;;;;;;;;;;;;;;;;5050985;28;19923;-42
2022/07/24 15:19:09;;;;;;;;;;;;;;;;;;5051168;28;19996;-42
2022/07/24 15:21:34;;;;;;;;;;;;;;;;;;5051411;28;19995;-41
2022/07/24 15:23:59;;;;;;;;;;;;;;;;;;5054806;28;19905;-42
2022/07/24 15:26:25;;;;;;;;;;;;;;;;;;5054650;28;19924;-41
2022/07/24 15:28:50;;;;;;;;;;;;;;;;;;5054985;28;19909;-42
2022/07/24 15:31:16;;;;;;;;;;;;;;;;;;5054810;28;19913;-42
2022/07/24 15:33:42;;;;;;;;;;;;;;;;;;5053204;28;20278;-43
2022/07/24 15:36:07;;;;;;;;;;;;;;;;;;5054654;28;19915;-42
2022/07/24 15:38:33;;;;;;;;;;;;;;;;;;5054473;28;19912;-41
2022/07/24 15:40:58;;;;;;;;;;;;;;;;;;5054510;28;19913;-42
2022/07/24 15:43:23;;;;;;;;;;;;;;;;;;5054341;28;19967;-42
2022/07/24 15:45:49;;;;;;;;;;;;;;;;;;5054666;28;19919;-42
2022/07/24 15:48:17;;;;;;;;;;;;;;;;;;5054275;28;20050;-42
2022/07/24 15:50:43;;;;;;;;;;;;;;;;;;5053029;28;20007;-41
2022/07/24 15:53:08;;;;;;;;;;;;;;;;;;5054163;28;20037;-42
2022/07/24 15:55:33;;;;;;;;;;;;;;;;;;5054167;28;19915;-41
2022/07/24 15:57:59;;;;;;;;;;;;;;;;;;5054515;28;19904;-42
2022/07/24 16:00:25;;;;;;;;;;;;;;;;;;5054073;28;20421;-43
2022/07/24 16:02:50;;;;;;;;;;;;;;;;;;5054106;28;19966;-41
2022/07/24 16:05:17;;;;;;;;;;;;;;;;;;5054198;28;19963;-41
2022/07/24 16:07:42;;;;;;;;;;;;;;;;;;5053767;28;19917;-42
2022/07/24 16:10:08;;;;;;;;;;;;;;;;;;5054274;28;19919;-42
2022/07/24 16:12:33;;;;;;;;;;;;;;;;;;5053822;28;19908;-42
2022/07/24 16:14:58;;;;;;;;;;;;;;;;;;5053995;28;19979;-43
2022/07/24 16:17:24;;;;;;;;;;;;;;;;;;5053617;28;19970;-42
2022/07/24 16:19:50;;;;;;;;;;;;;;;;;;5053825;28;19920;-42
2022/07/24 16:22:15;;;;;;;;;;;;;;;;;;5053810;28;19908;-41
2022/07/24 16:24:41;;;;;;;;;;;;;;;;;;5052284;28;19959;-42
2022/07/24 16:27:06;;;;;;;;;;;;;;;;;;5053638;28;19916;-41
2022/07/24 16:29:32;;;;;;;;;;;;;;;;;;5053624;28;19952;-41
2022/07/24 16:31:57;;;;;;;;;;;;;;;;;;5053449;28;19956;-41